createdAt,value
2019-03-08T00:00:13.487Z,990.98
2019-03-08T00:00:48.875Z,991.06
2019-03-08T00:01:24.588Z,990.95
2019-03-08T00:01:59.718Z,991.17
2019-03-08T00:02:35.203Z,991.39
2019-03-08T00:03:11.044Z,991.11
2019-03-08T00:03:46.364Z,990.75
2019-03-08T00:04:21.578Z,991.08
2019-03-08T00:04:57.286Z,991.29
2019-03-08T00:05:32.583Z,991.11
2019-03-08T00:06:07.806Z,991.12
2019-03-08T00:06:43.494Z,991.07
2019-03-08T00:07:19.263Z,991.18
2019-03-08T00:07:54.575Z,991.15
2019-03-08T00:08:30.036Z,991.24
2019-03-08T00:09:05.442Z,991.04
2019-03-08T00:09:40.769Z,990.97
2019-03-08T00:10:16.359Z,991.15
2019-03-08T00:10:51.900Z,991.08
2019-03-08T00:11:27.606Z,991.23
2019-03-08T00:12:03.016Z,991.34
2019-03-08T00:12:38.112Z,991.20
2019-03-08T00:13:13.436Z,991.16
2019-03-08T00:13:48.985Z,991.21
2019-03-08T00:14:24.502Z,991.08
2019-03-08T00:14:59.912Z,991.34
2019-03-08T00:15:35.197Z,991.12
2019-03-08T00:16:10.433Z,991.36
2019-03-08T00:16:45.943Z,991.21
2019-03-08T00:17:21.263Z,991.22
2019-03-08T00:17:56.647Z,991.20
2019-03-08T00:18:32.083Z,991.21
2019-03-08T00:19:07.484Z,991.32
2019-03-08T00:19:43.015Z,991.29
2019-03-08T00:20:18.097Z,991.19
2019-03-08T00:20:53.327Z,991.26
2019-03-08T00:21:28.832Z,991.26
2019-03-08T00:22:04.159Z,991.21
2019-03-08T00:22:39.558Z,991.24
2019-03-08T00:23:14.986Z,991.27
2019-03-08T00:23:51.339Z,991.27
2019-03-08T00:24:27.552Z,991.31
2019-03-08T00:25:03.038Z,991.29
2019-03-08T00:25:38.387Z,991.25
2019-03-08T00:26:13.883Z,991.18
2019-03-08T00:26:49.412Z,991.36
2019-03-08T00:27:24.827Z,991.36
2019-03-08T00:28:00.204Z,991.32
2019-03-08T00:28:35.436Z,991.45
2019-03-08T00:29:10.888Z,991.39
2019-03-08T00:29:45.988Z,991.44
2019-03-08T00:30:21.592Z,991.37
2019-03-08T00:30:57.033Z,991.43
2019-03-08T00:31:32.511Z,991.41
2019-03-08T00:32:07.784Z,991.43
2019-03-08T00:32:43.151Z,991.47
2019-03-08T00:33:18.651Z,991.55
2019-03-08T00:33:54.073Z,991.56
2019-03-08T00:34:29.189Z,991.38
2019-03-08T00:35:04.679Z,991.47
2019-03-08T00:35:39.901Z,991.46
2019-03-08T00:36:15.899Z,991.56
2019-03-08T00:36:51.123Z,991.51
2019-03-08T00:37:26.318Z,991.67
2019-03-08T00:38:01.853Z,991.60
2019-03-08T00:38:36.966Z,991.57
2019-03-08T00:39:12.289Z,991.61
2019-03-08T00:39:47.479Z,991.49
2019-03-08T00:40:22.902Z,991.51
2019-03-08T00:40:58.198Z,991.53
2019-03-08T00:41:33.823Z,991.59
2019-03-08T00:42:09.430Z,991.59
2019-03-08T00:42:44.946Z,991.57
2019-03-08T00:43:20.355Z,991.63
2019-03-08T00:43:55.767Z,991.61
2019-03-08T00:44:31.168Z,991.63
2019-03-08T00:45:06.584Z,991.78
2019-03-08T00:45:42.078Z,991.71
2019-03-08T00:46:17.502Z,991.67
2019-03-08T00:46:52.827Z,991.75
2019-03-08T00:47:28.141Z,991.51
2019-03-08T00:48:03.473Z,991.66
2019-03-08T00:48:38.892Z,991.77
2019-03-08T00:49:14.323Z,991.79
2019-03-08T00:49:49.742Z,991.71
2019-03-08T00:50:25.264Z,991.94
2019-03-08T00:51:00.757Z,991.72
2019-03-08T00:51:36.067Z,992.00
2019-03-08T00:52:11.253Z,991.75
2019-03-08T00:52:46.806Z,991.80
2019-03-08T00:53:21.924Z,991.81
2019-03-08T00:53:57.044Z,991.90
2019-03-08T00:54:32.534Z,991.87
2019-03-08T00:55:07.763Z,991.95
2019-03-08T00:55:43.251Z,992.09
2019-03-08T00:56:18.378Z,991.87
2019-03-08T00:56:53.873Z,991.85
2019-03-08T00:57:28.999Z,991.99
2019-03-08T00:58:04.184Z,992.01
2019-03-08T00:58:39.462Z,992.06
2019-03-08T00:59:15.054Z,991.95
2019-03-08T00:59:50.404Z,991.94
2019-03-08T01:00:25.694Z,991.91
2019-03-08T01:01:01.213Z,992.02
2019-03-08T01:01:36.621Z,991.99
2019-03-08T01:02:12.033Z,992.21
2019-03-08T01:02:47.336Z,991.97
2019-03-08T01:03:22.876Z,992.03
2019-03-08T01:03:58.665Z,992.01
2019-03-08T01:04:34.107Z,992.06
2019-03-08T01:05:09.513Z,991.96
2019-03-08T01:05:44.833Z,991.99
2019-03-08T01:06:20.012Z,991.99
2019-03-08T01:06:55.452Z,992.01
2019-03-08T01:07:30.653Z,991.91
2019-03-08T01:08:06.184Z,991.97
2019-03-08T01:08:41.593Z,991.92
2019-03-08T01:09:17.232Z,991.92
2019-03-08T01:09:52.452Z,992.04
2019-03-08T01:10:28.052Z,991.97
2019-03-08T01:11:03.468Z,992.03
2019-03-08T01:11:39.170Z,991.96
2019-03-08T01:12:14.576Z,992.03
2019-03-08T01:12:49.755Z,992.05
2019-03-08T01:13:25.116Z,991.93
2019-03-08T01:14:00.350Z,992.05
2019-03-08T01:14:35.923Z,992.17
2019-03-08T01:15:11.335Z,992.15
2019-03-08T01:15:46.574Z,991.97
2019-03-08T01:16:21.864Z,991.98
2019-03-08T01:16:57.180Z,992.07
2019-03-08T01:17:32.373Z,991.89
2019-03-08T01:18:07.605Z,992.08
2019-03-08T01:18:42.914Z,992.18
2019-03-08T01:19:18.163Z,992.01
2019-03-08T01:19:53.348Z,992.16
2019-03-08T01:20:28.960Z,992.03
2019-03-08T01:21:04.690Z,992.01
2019-03-08T01:21:40.249Z,992.13
2019-03-08T01:22:15.772Z,992.15
2019-03-08T01:22:51.150Z,992.22
2019-03-08T01:23:27.112Z,992.10
2019-03-08T01:24:02.751Z,992.04
2019-03-08T01:24:38.057Z,992.05
2019-03-08T01:25:13.676Z,992.12
2019-03-08T01:25:48.984Z,992.33
2019-03-08T01:26:24.405Z,992.04
2019-03-08T01:26:59.498Z,992.26
2019-03-08T01:27:34.824Z,992.17
2019-03-08T01:28:10.234Z,992.21
2019-03-08T01:28:45.481Z,992.39
2019-03-08T01:29:20.971Z,992.24
2019-03-08T01:29:56.386Z,992.25
2019-03-08T01:30:31.604Z,992.20
2019-03-08T01:31:06.994Z,992.39
2019-03-08T01:31:42.419Z,992.27
2019-03-08T01:32:17.818Z,992.37
2019-03-08T01:32:52.954Z,992.44
2019-03-08T01:33:28.153Z,992.35
2019-03-08T01:34:03.521Z,992.16
2019-03-08T01:34:38.835Z,992.11
2019-03-08T01:35:14.351Z,992.27
2019-03-08T01:35:49.644Z,992.23
2019-03-08T01:36:24.954Z,992.39
2019-03-08T01:37:00.150Z,992.35
2019-03-08T01:37:35.765Z,992.30
2019-03-08T01:38:11.055Z,992.35
2019-03-08T01:38:46.466Z,992.43
2019-03-08T01:39:21.895Z,992.34
2019-03-08T01:39:57.422Z,992.41
2019-03-08T01:40:32.911Z,992.29
2019-03-08T01:41:08.127Z,992.32
2019-03-08T01:41:43.651Z,992.33
2019-03-08T01:42:19.179Z,992.56
2019-03-08T01:42:54.280Z,992.49
2019-03-08T01:43:29.884Z,992.46
2019-03-08T01:44:05.068Z,992.69
2019-03-08T01:44:40.206Z,992.55
2019-03-08T01:45:15.494Z,992.60
2019-03-08T01:45:51.007Z,992.64
2019-03-08T01:46:26.214Z,992.72
2019-03-08T01:47:01.627Z,992.79
2019-03-08T01:47:36.814Z,992.70
2019-03-08T01:48:12.030Z,992.65
2019-03-08T01:48:47.144Z,992.70
2019-03-08T01:49:22.520Z,992.66
2019-03-08T01:49:57.812Z,992.90
2019-03-08T01:50:33.433Z,992.81
2019-03-08T01:51:08.719Z,992.75
2019-03-08T01:51:43.937Z,992.90
2019-03-08T01:52:19.358Z,992.85
2019-03-08T01:52:54.571Z,992.94
2019-03-08T01:53:29.989Z,992.91
2019-03-08T01:54:05.272Z,992.60
2019-03-08T01:54:40.619Z,993.12
2019-03-08T01:55:16.017Z,993.15
2019-03-08T01:55:51.254Z,993.02
2019-03-08T01:56:26.665Z,993.11
2019-03-08T01:57:01.996Z,993.13
2019-03-08T01:57:37.293Z,993.20
2019-03-08T01:58:12.656Z,993.19
2019-03-08T01:58:48.044Z,993.13
2019-03-08T01:59:23.295Z,993.13
2019-03-08T01:59:59.001Z,993.20
2019-03-08T02:00:34.408Z,993.13
2019-03-08T02:01:09.801Z,993.53
2019-03-08T02:01:45.231Z,993.21
2019-03-08T02:02:20.318Z,993.36
2019-03-08T02:02:55.550Z,993.41
2019-03-08T02:03:30.937Z,993.26
2019-03-08T02:04:06.252Z,993.36
2019-03-08T02:04:41.802Z,993.40
2019-03-08T02:05:17.007Z,993.40
2019-03-08T02:05:52.188Z,993.40
2019-03-08T02:06:27.812Z,993.34
2019-03-08T02:07:03.340Z,993.38
2019-03-08T02:07:38.868Z,993.48
2019-03-08T02:08:14.059Z,993.34
2019-03-08T02:08:49.204Z,993.35
2019-03-08T02:09:24.304Z,993.45
2019-03-08T02:09:59.524Z,993.38
2019-03-08T02:10:34.827Z,993.56
2019-03-08T02:11:10.355Z,993.45
2019-03-08T02:11:45.740Z,993.56
2019-03-08T02:12:21.086Z,993.46
2019-03-08T02:12:56.389Z,993.42
2019-03-08T02:13:31.608Z,993.35
2019-03-08T02:14:06.817Z,993.48
2019-03-08T02:14:42.252Z,993.38
2019-03-08T02:15:17.650Z,993.52
2019-03-08T02:15:52.880Z,993.43
2019-03-08T02:16:28.369Z,993.49
2019-03-08T02:17:03.592Z,993.54
2019-03-08T02:17:38.911Z,993.41
2019-03-08T02:18:14.400Z,993.61
2019-03-08T02:18:49.744Z,993.45
2019-03-08T02:19:25.072Z,993.44
2019-03-08T02:20:00.498Z,993.56
2019-03-08T02:20:35.890Z,993.43
2019-03-08T02:21:11.205Z,993.58
2019-03-08T02:21:46.985Z,993.50
2019-03-08T02:22:23.532Z,993.40
2019-03-08T02:22:57.695Z,993.47
2019-03-08T02:23:33.100Z,993.58
2019-03-08T02:24:08.504Z,993.55
2019-03-08T02:24:43.742Z,993.62
2019-03-08T02:25:19.032Z,993.56
2019-03-08T02:25:54.454Z,993.52
2019-03-08T02:26:29.540Z,993.52
2019-03-08T02:27:04.953Z,993.61
2019-03-08T02:27:40.339Z,993.47
2019-03-08T02:28:15.854Z,993.46
2019-03-08T02:28:51.137Z,993.56
2019-03-08T02:29:26.698Z,993.42
2019-03-08T02:30:01.775Z,993.45
2019-03-08T02:30:37.190Z,993.60
2019-03-08T02:31:12.358Z,993.46
2019-03-08T02:31:47.582Z,993.52
2019-03-08T02:32:22.867Z,993.52
2019-03-08T02:32:58.186Z,993.51
2019-03-08T02:33:33.501Z,993.56
2019-03-08T02:34:08.781Z,993.54
2019-03-08T02:34:44.028Z,993.49
2019-03-08T02:35:19.216Z,993.49
2019-03-08T02:35:54.526Z,993.47
2019-03-08T02:36:29.821Z,993.50
2019-03-08T02:37:05.038Z,993.57
2019-03-08T02:37:40.471Z,993.45
2019-03-08T02:38:15.959Z,993.54
2019-03-08T02:38:51.174Z,993.56
2019-03-08T02:39:26.540Z,993.51
2019-03-08T02:40:02.160Z,993.50
2019-03-08T02:40:37.341Z,993.51
2019-03-08T02:41:12.860Z,993.48
2019-03-08T02:41:48.047Z,993.57
2019-03-08T02:42:23.354Z,993.56
2019-03-08T02:42:58.534Z,993.56
2019-03-08T02:43:33.938Z,993.52
2019-03-08T02:44:09.225Z,993.54
2019-03-08T02:44:44.954Z,993.56
2019-03-08T02:45:20.348Z,993.49
2019-03-08T02:45:55.770Z,993.45
2019-03-08T02:46:31.057Z,993.57
2019-03-08T02:47:06.393Z,993.56
2019-03-08T02:47:41.557Z,993.45
2019-03-08T02:48:16.974Z,993.49
2019-03-08T02:48:52.171Z,993.53
2019-03-08T02:49:27.713Z,993.45
2019-03-08T02:50:03.105Z,993.47
2019-03-08T02:50:38.403Z,993.51
2019-03-08T02:51:14.086Z,993.49
2019-03-08T02:51:49.398Z,993.50
2019-03-08T02:52:25.180Z,993.48
2019-03-08T02:53:00.381Z,993.46
2019-03-08T02:53:35.789Z,993.48
2019-03-08T02:54:11.165Z,993.52
2019-03-08T02:54:46.504Z,993.49
2019-03-08T02:55:21.884Z,993.60
2019-03-08T02:55:57.201Z,993.58
2019-03-08T02:56:32.531Z,993.58
2019-03-08T02:57:07.616Z,993.50
2019-03-08T02:57:42.849Z,993.48
2019-03-08T02:58:18.248Z,993.58
2019-03-08T02:58:53.572Z,993.35
2019-03-08T02:59:28.788Z,993.49
2019-03-08T03:00:04.313Z,993.58
2019-03-08T03:00:39.690Z,993.57
2019-03-08T03:01:15.154Z,993.68
2019-03-08T03:01:50.335Z,993.55
2019-03-08T03:02:25.557Z,993.55
2019-03-08T03:03:00.959Z,993.68
2019-03-08T03:03:36.157Z,993.60
2019-03-08T03:04:11.356Z,993.54
2019-03-08T03:04:46.485Z,993.59
2019-03-08T03:05:21.978Z,993.65
2019-03-08T03:05:57.494Z,993.74
2019-03-08T03:06:33.106Z,993.73
2019-03-08T03:07:08.428Z,993.58
2019-03-08T03:07:43.716Z,993.87
2019-03-08T03:08:19.067Z,993.65
2019-03-08T03:08:54.496Z,993.77
2019-03-08T03:09:30.108Z,993.70
2019-03-08T03:10:05.492Z,993.72
2019-03-08T03:10:40.886Z,993.61
2019-03-08T03:11:16.165Z,993.89
2019-03-08T03:11:51.482Z,993.77
2019-03-08T03:12:27.062Z,993.75
2019-03-08T03:13:02.663Z,993.71
2019-03-08T03:13:38.177Z,993.77
2019-03-08T03:14:13.259Z,993.64
2019-03-08T03:14:48.498Z,993.73
2019-03-08T03:15:23.777Z,993.81
2019-03-08T03:15:59.190Z,993.76
2019-03-08T03:16:35.086Z,993.90
2019-03-08T03:17:10.304Z,994.11
2019-03-08T03:17:45.682Z,993.82
2019-03-08T03:18:20.998Z,993.88
2019-03-08T03:18:56.633Z,993.84
2019-03-08T03:19:32.033Z,993.93
2019-03-08T03:20:07.415Z,994.00
2019-03-08T03:20:42.847Z,994.04
2019-03-08T03:21:18.355Z,993.95
2019-03-08T03:21:53.674Z,994.05
2019-03-08T03:22:29.278Z,994.05
2019-03-08T03:23:04.413Z,994.00
2019-03-08T03:23:39.629Z,994.07
2019-03-08T03:24:14.809Z,994.15
2019-03-08T03:24:50.249Z,994.14
2019-03-08T03:25:25.405Z,994.06
2019-03-08T03:26:00.474Z,994.12
2019-03-08T03:26:35.688Z,994.10
2019-03-08T03:27:11.502Z,994.17
2019-03-08T03:27:46.794Z,994.12
2019-03-08T03:28:21.900Z,994.14
2019-03-08T03:28:57.284Z,994.28
2019-03-08T03:29:32.427Z,994.25
2019-03-08T03:30:07.932Z,994.26
2019-03-08T03:30:43.731Z,994.29
2019-03-08T03:31:19.018Z,994.44
2019-03-08T03:31:54.388Z,994.34
2019-03-08T03:32:29.491Z,994.30
2019-03-08T03:33:04.800Z,994.35
2019-03-08T03:33:40.205Z,994.35
2019-03-08T03:34:15.386Z,994.40
2019-03-08T03:34:50.603Z,994.35
2019-03-08T03:35:25.903Z,994.40
2019-03-08T03:36:01.430Z,994.36
2019-03-08T03:36:36.610Z,994.44
2019-03-08T03:37:12.133Z,994.43
2019-03-08T03:37:47.226Z,994.32
2019-03-08T03:38:22.833Z,994.43
2019-03-08T03:38:58.544Z,994.39
2019-03-08T03:39:33.965Z,994.35
2019-03-08T03:40:09.450Z,994.47
2019-03-08T03:40:44.760Z,994.48
2019-03-08T03:41:20.045Z,994.52
2019-03-08T03:41:55.178Z,994.34
2019-03-08T03:42:30.276Z,994.49
2019-03-08T03:43:05.882Z,994.53
2019-03-08T03:43:41.209Z,994.50
2019-03-08T03:44:16.716Z,994.43
2019-03-08T03:44:52.131Z,994.56
2019-03-08T03:45:27.739Z,994.50
2019-03-08T03:46:03.057Z,994.57
2019-03-08T03:46:38.246Z,994.61
2019-03-08T03:47:13.564Z,994.60
2019-03-08T03:47:49.193Z,994.57
2019-03-08T03:48:24.599Z,994.63
2019-03-08T03:48:59.770Z,994.67
2019-03-08T03:49:35.481Z,994.62
2019-03-08T03:50:10.863Z,994.55
2019-03-08T03:50:46.209Z,994.63
2019-03-08T03:51:21.787Z,994.64
2019-03-08T03:51:57.196Z,994.72
2019-03-08T03:52:32.598Z,994.69
2019-03-08T03:53:08.001Z,994.69
2019-03-08T03:53:43.549Z,994.73
2019-03-08T03:54:19.039Z,994.63
2019-03-08T03:54:54.455Z,994.82
2019-03-08T03:55:29.755Z,995.06
2019-03-08T03:56:05.070Z,994.89
2019-03-08T03:56:40.658Z,994.87
2019-03-08T03:57:15.891Z,994.86
2019-03-08T03:57:51.304Z,994.90
2019-03-08T03:58:26.624Z,994.88
2019-03-08T03:59:02.053Z,994.94
2019-03-08T03:59:37.367Z,994.88
2019-03-08T04:00:12.773Z,994.90
2019-03-08T04:00:48.185Z,995.00
2019-03-08T04:01:23.574Z,994.84
2019-03-08T04:01:59.215Z,994.87
2019-03-08T04:02:34.704Z,995.04
2019-03-08T04:03:10.229Z,995.01
2019-03-08T04:03:45.440Z,995.00
2019-03-08T04:04:20.979Z,995.05
2019-03-08T04:04:56.299Z,995.12
2019-03-08T04:05:31.696Z,995.13
2019-03-08T04:06:07.255Z,994.99
2019-03-08T04:06:42.559Z,995.09
2019-03-08T04:07:17.991Z,995.12
2019-03-08T04:07:53.191Z,995.44
2019-03-08T04:08:28.510Z,995.18
2019-03-08T04:09:03.681Z,995.13
2019-03-08T04:09:39.076Z,995.18
2019-03-08T04:10:14.573Z,995.16
2019-03-08T04:10:49.890Z,995.17
2019-03-08T04:11:25.450Z,995.15
2019-03-08T04:12:00.759Z,995.22
2019-03-08T04:12:36.290Z,995.24
2019-03-08T04:13:12.030Z,995.21
2019-03-08T04:13:47.622Z,995.38
2019-03-08T04:14:23.338Z,995.28
2019-03-08T04:14:58.750Z,995.29
2019-03-08T04:15:35.079Z,995.29
2019-03-08T04:16:10.582Z,995.34
2019-03-08T04:16:45.997Z,995.36
2019-03-08T04:17:21.207Z,995.39
2019-03-08T04:17:56.614Z,995.38
2019-03-08T04:18:32.044Z,995.38
2019-03-08T04:19:07.113Z,995.38
2019-03-08T04:19:42.443Z,995.43
2019-03-08T04:20:18.042Z,995.36
2019-03-08T04:20:53.259Z,995.41
2019-03-08T04:21:28.570Z,995.53
2019-03-08T04:22:03.869Z,995.47
2019-03-08T04:22:38.981Z,995.52
2019-03-08T04:23:14.500Z,995.43
2019-03-08T04:23:49.603Z,995.52
2019-03-08T04:24:24.936Z,995.52
2019-03-08T04:25:00.308Z,995.56
2019-03-08T04:25:35.602Z,995.51
2019-03-08T04:26:11.287Z,995.56
2019-03-08T04:26:46.994Z,995.60
2019-03-08T04:27:22.511Z,995.53
2019-03-08T04:27:58.346Z,995.63
2019-03-08T04:28:33.805Z,995.58
2019-03-08T04:29:09.106Z,995.64
2019-03-08T04:29:44.410Z,995.61
2019-03-08T04:30:19.730Z,995.56
2019-03-08T04:30:54.945Z,995.55
2019-03-08T04:31:30.171Z,995.57
2019-03-08T04:32:05.487Z,995.59
2019-03-08T04:32:40.791Z,995.69
2019-03-08T04:33:16.115Z,995.71
2019-03-08T04:33:51.804Z,995.55
2019-03-08T04:34:27.318Z,995.61
2019-03-08T04:35:02.814Z,995.59
2019-03-08T04:35:38.128Z,995.67
2019-03-08T04:36:13.606Z,995.65
2019-03-08T04:36:49.013Z,995.59
2019-03-08T04:37:24.416Z,995.61
2019-03-08T04:38:00.038Z,995.61
2019-03-08T04:38:35.253Z,995.65
2019-03-08T04:39:10.514Z,995.61
2019-03-08T04:39:45.834Z,995.62
2019-03-08T04:40:21.318Z,995.54
2019-03-08T04:40:56.435Z,995.73
2019-03-08T04:41:31.623Z,995.77
2019-03-08T04:42:06.944Z,995.79
2019-03-08T04:42:42.113Z,995.85
2019-03-08T04:43:17.518Z,995.80
2019-03-08T04:43:53.045Z,995.74
2019-03-08T04:44:28.236Z,995.94
2019-03-08T04:45:03.449Z,995.83
2019-03-08T04:45:38.735Z,995.83
2019-03-08T04:46:14.030Z,995.83
2019-03-08T04:46:49.541Z,995.77
2019-03-08T04:47:24.727Z,995.95
2019-03-08T04:48:00.129Z,995.84
2019-03-08T04:48:35.577Z,995.89
2019-03-08T04:49:10.985Z,995.95
2019-03-08T04:49:46.295Z,995.98
2019-03-08T04:50:21.671Z,995.93
2019-03-08T04:50:56.682Z,995.98
2019-03-08T04:51:31.769Z,996.07
2019-03-08T04:52:06.878Z,996.05
2019-03-08T04:52:41.961Z,995.99
2019-03-08T04:53:17.583Z,995.95
2019-03-08T04:53:52.953Z,996.18
2019-03-08T04:54:28.540Z,996.05
2019-03-08T04:55:03.978Z,996.06
2019-03-08T04:55:39.265Z,996.04
2019-03-08T04:56:14.709Z,996.08
2019-03-08T04:56:50.134Z,996.10
2019-03-08T04:57:25.471Z,996.09
2019-03-08T04:58:01.148Z,996.09
2019-03-08T04:58:36.365Z,996.03
2019-03-08T04:59:11.913Z,996.00
2019-03-08T04:59:50.519Z,996.12
2019-03-08T05:00:25.930Z,996.12
2019-03-08T05:01:01.257Z,996.21
2019-03-08T05:01:36.675Z,996.20
2019-03-08T05:02:12.157Z,996.18
2019-03-08T05:02:47.839Z,996.16
2019-03-08T05:03:23.504Z,996.15
2019-03-08T05:03:58.685Z,996.20
2019-03-08T05:04:33.706Z,996.18
2019-03-08T05:05:08.817Z,996.23
2019-03-08T05:05:44.096Z,996.26
2019-03-08T05:06:19.311Z,996.32
2019-03-08T05:06:54.827Z,996.21
2019-03-08T05:07:30.330Z,996.22
2019-03-08T05:08:05.829Z,996.25
2019-03-08T05:08:41.134Z,996.23
2019-03-08T05:09:16.555Z,996.31
2019-03-08T05:09:51.963Z,996.24
2019-03-08T05:10:27.283Z,996.30
2019-03-08T05:11:02.562Z,996.33
2019-03-08T05:11:37.763Z,996.35
2019-03-08T05:12:13.078Z,996.35
2019-03-08T05:12:48.258Z,996.37
2019-03-08T05:13:23.601Z,996.39
2019-03-08T05:13:59.172Z,996.42
2019-03-08T05:14:34.795Z,996.39
2019-03-08T05:15:10.327Z,996.40
2019-03-08T05:15:46.011Z,996.46
2019-03-08T05:16:21.423Z,996.41
2019-03-08T05:16:56.728Z,996.47
2019-03-08T05:17:31.962Z,996.47
2019-03-08T05:18:06.977Z,996.43
2019-03-08T05:18:42.487Z,996.50
2019-03-08T05:19:17.994Z,996.51
2019-03-08T05:19:53.372Z,996.52
2019-03-08T05:20:28.691Z,996.47
2019-03-08T05:21:04.182Z,996.69
2019-03-08T05:21:39.681Z,996.43
2019-03-08T05:22:14.794Z,996.55
2019-03-08T05:22:49.979Z,996.50
2019-03-08T05:23:25.419Z,996.50
2019-03-08T05:24:00.999Z,996.55
2019-03-08T05:24:36.209Z,996.50
2019-03-08T05:25:11.627Z,996.56
2019-03-08T05:25:47.232Z,996.51
2019-03-08T05:26:22.440Z,996.65
2019-03-08T05:26:57.630Z,996.62
2019-03-08T05:27:32.638Z,996.63
2019-03-08T05:28:07.969Z,996.63
2019-03-08T05:28:43.101Z,996.56
2019-03-08T05:29:18.585Z,996.67
2019-03-08T05:29:53.900Z,996.62
2019-03-08T05:30:29.530Z,996.74
2019-03-08T05:31:04.631Z,996.65
2019-03-08T05:31:39.858Z,996.69
2019-03-08T05:32:15.039Z,996.65
2019-03-08T05:32:50.458Z,996.62
2019-03-08T05:33:25.758Z,996.63
2019-03-08T05:34:00.999Z,996.63
2019-03-08T05:34:36.209Z,996.73
2019-03-08T05:35:11.798Z,996.63
2019-03-08T05:35:47.024Z,996.68
2019-03-08T05:36:22.323Z,996.63
2019-03-08T05:36:57.822Z,996.78
2019-03-08T05:37:33.115Z,996.64
2019-03-08T05:38:08.226Z,996.58
2019-03-08T05:38:43.577Z,996.81
2019-03-08T05:39:19.067Z,996.73
2019-03-08T05:39:54.380Z,996.82
2019-03-08T05:40:29.974Z,996.85
2019-03-08T05:41:05.573Z,996.68
2019-03-08T05:41:41.188Z,996.86
2019-03-08T05:42:16.289Z,996.75
2019-03-08T05:42:51.385Z,996.86
2019-03-08T05:43:26.809Z,996.78
2019-03-08T05:44:02.603Z,996.87
2019-03-08T05:44:47.112Z,996.91
2019-03-08T05:45:38.972Z,996.96
2019-03-08T05:46:14.486Z,996.83
2019-03-08T05:47:10.684Z,996.94
2019-03-08T05:47:46.301Z,997.03
2019-03-08T05:48:21.403Z,997.01
2019-03-08T05:48:56.817Z,997.00
2019-03-08T05:49:32.195Z,997.07
2019-03-08T05:50:07.497Z,997.06
2019-03-08T05:50:54.321Z,997.08
2019-03-08T05:51:29.991Z,997.12
2019-03-08T05:52:05.209Z,997.12
2019-03-08T05:52:40.503Z,997.29
2019-03-08T05:53:15.812Z,997.03
2019-03-08T05:53:51.253Z,997.08
2019-03-08T05:54:36.830Z,997.18
2019-03-08T05:55:12.249Z,997.22
2019-03-08T06:02:46.198Z,997.50
2019-03-08T06:03:21.618Z,997.53
2019-03-08T06:03:57.013Z,997.48
2019-03-08T06:04:32.280Z,997.59
2019-03-08T06:05:07.968Z,997.61
2019-03-08T06:05:53.447Z,997.53
2019-03-08T06:06:28.824Z,997.69
2019-03-08T06:07:04.005Z,997.69
2019-03-08T06:07:39.357Z,997.75
2019-03-08T06:10:34.098Z,997.84
2019-03-08T06:11:09.482Z,997.71
2019-03-08T06:11:44.785Z,997.75
2019-03-08T06:12:20.283Z,997.78
2019-03-08T06:13:07.884Z,997.76
2019-03-08T06:13:43.229Z,997.82
2019-03-08T06:14:18.415Z,997.83
2019-03-08T06:14:53.582Z,997.80
2019-03-08T06:15:28.848Z,997.86
2019-03-08T06:16:15.256Z,997.90
2019-03-08T06:16:50.560Z,997.96
2019-03-08T06:17:26.167Z,997.90
2019-03-08T06:18:16.856Z,997.95
2019-03-08T06:19:02.001Z,998.10
2019-03-08T06:19:37.411Z,997.96
2019-03-08T06:20:12.709Z,998.00
2019-03-08T06:21:03.260Z,998.00
2019-03-08T06:21:40.459Z,998.05
2019-03-08T06:22:15.766Z,998.08
2019-03-08T06:22:51.340Z,998.12
2019-03-08T06:23:26.875Z,998.19
2019-03-08T06:24:01.964Z,997.98
2019-03-08T06:24:37.364Z,998.14
2019-03-08T06:25:13.035Z,998.13
2019-03-08T06:25:48.307Z,998.11
2019-03-08T06:26:23.599Z,998.17
2019-03-08T06:27:07.569Z,998.15
2019-03-08T06:27:42.753Z,998.24
2019-03-08T06:28:17.973Z,998.26
2019-03-08T06:28:53.153Z,998.26
2019-03-08T06:29:37.296Z,998.34
2019-03-08T06:30:47.783Z,998.35
2019-03-08T06:31:22.954Z,998.35
2019-03-08T06:31:58.628Z,998.44
2019-03-08T06:32:34.123Z,998.48
2019-03-08T06:33:09.502Z,998.51
2019-03-08T06:33:44.712Z,998.44
2019-03-08T06:34:20.110Z,998.44
2019-03-08T06:34:55.274Z,998.56
2019-03-08T06:35:30.467Z,998.53
2019-03-08T06:36:15.671Z,998.47
2019-03-08T06:46:15.737Z,998.87
2019-03-08T06:46:51.019Z,998.89
2019-03-08T06:47:25.980Z,998.94
2019-03-08T06:48:01.263Z,998.97
2019-03-08T06:48:36.521Z,999.08
2019-03-08T06:49:11.937Z,998.95
2019-03-08T06:49:47.224Z,998.95
2019-03-08T06:50:22.789Z,998.99
2019-03-08T06:50:57.992Z,999.29
2019-03-08T06:51:33.759Z,999.03
2019-03-08T06:52:09.275Z,999.16
2019-03-08T06:52:44.761Z,999.08
2019-03-08T06:53:20.055Z,999.11
2019-03-08T06:53:55.351Z,999.13
2019-03-08T06:54:30.923Z,999.14
2019-03-08T06:55:06.600Z,999.22
2019-03-08T06:55:41.988Z,999.18
2019-03-08T06:56:17.345Z,999.18
2019-03-08T06:56:52.936Z,999.39
2019-03-08T06:57:28.145Z,999.25
2019-03-08T06:58:03.412Z,999.30
2019-03-08T06:58:38.594Z,999.30
2019-03-08T06:59:13.877Z,999.33
2019-03-08T06:59:49.400Z,999.35
2019-03-08T07:00:24.778Z,999.42
2019-03-08T07:00:59.963Z,999.32
2019-03-08T07:01:35.343Z,999.34
2019-03-08T07:02:10.656Z,999.45
2019-03-08T07:02:45.953Z,999.47
2019-03-08T07:03:21.556Z,999.46
2019-03-08T07:03:56.945Z,999.51
2019-03-08T07:04:32.203Z,999.53
2019-03-08T07:05:07.605Z,999.48
2019-03-08T07:05:42.786Z,999.48
2019-03-08T07:06:26.534Z,999.57
2019-03-08T07:07:02.238Z,999.59
2019-03-08T07:07:37.605Z,999.60
2019-03-08T07:08:22.717Z,999.54
2019-03-08T07:08:58.311Z,999.59
2019-03-08T07:09:33.887Z,999.69
2019-03-08T07:10:09.492Z,999.66
2019-03-08T07:13:17.826Z,999.78
2019-03-08T07:13:53.124Z,999.79
2019-03-08T07:14:28.529Z,999.73
2019-03-08T07:15:03.643Z,999.82
2019-03-08T07:15:39.004Z,999.77
2019-03-08T07:16:14.292Z,999.78
2019-03-08T07:16:49.554Z,999.87
2019-03-08T07:17:24.857Z,999.86
2019-03-08T07:20:50.844Z,999.94
2019-03-08T07:21:26.440Z,999.95
2019-03-08T07:22:01.732Z,999.97
2019-03-08T07:22:36.802Z,1000.01
2019-03-08T07:23:12.285Z,1000.03
2019-03-08T07:23:47.677Z,1000.06
2019-03-08T07:24:23.080Z,1000.06
2019-03-08T07:24:58.658Z,1000.14
2019-03-08T07:25:33.920Z,1000.10
2019-03-08T07:26:09.219Z,1000.18
2019-03-08T07:26:59.494Z,1000.18
2019-03-08T07:27:34.864Z,1000.22
2019-03-08T07:28:10.169Z,1000.30
2019-03-08T07:28:45.480Z,1000.27
2019-03-08T07:29:21.085Z,1000.25
2019-03-08T07:29:56.552Z,1000.29
2019-03-08T07:30:31.970Z,1000.28
2019-03-08T07:31:07.099Z,1000.33
2019-03-08T07:31:42.679Z,1000.40
2019-03-08T07:32:17.884Z,1000.45
2019-03-08T07:32:53.048Z,1000.40
2019-03-08T07:33:28.452Z,1000.46
2019-03-08T07:34:03.953Z,1000.45
2019-03-08T07:34:39.772Z,1000.43
2019-03-08T07:35:14.974Z,1000.42
2019-03-08T07:35:50.234Z,1000.49
2019-03-08T07:36:25.433Z,1000.46
2019-03-08T07:37:01.042Z,1000.54
2019-03-08T07:37:36.741Z,1000.48
2019-03-08T07:38:19.181Z,1000.57
2019-03-08T07:38:54.584Z,1000.61
2019-03-08T07:39:30.087Z,1000.62
2019-03-08T07:40:05.500Z,1000.68
2019-03-08T07:40:40.868Z,1000.68
2019-03-08T07:41:16.276Z,1000.75
2019-03-08T07:41:51.658Z,1000.84
2019-03-08T07:42:26.975Z,1000.76
2019-03-08T07:43:02.245Z,1000.71
2019-03-08T07:43:37.516Z,1000.79
2019-03-08T07:44:12.816Z,1000.95
2019-03-08T07:44:48.345Z,1000.92
2019-03-08T07:45:23.835Z,1000.87
2019-03-08T07:45:59.526Z,1000.93
2019-03-08T07:46:35.036Z,1000.95
2019-03-08T07:47:10.426Z,1000.91
2019-03-08T07:47:45.756Z,1001.07
2019-03-08T07:48:21.201Z,1000.89
2019-03-08T07:48:56.690Z,1001.02